createdAt,value
2023-03-05T00:01:29.319Z,155470.00
2023-03-05T00:03:58.091Z,155448.88
2023-03-05T00:06:27.732Z,155459.47
2023-03-05T00:08:56.954Z,155459.47
2023-03-05T00:11:28.455Z,155454.16
2023-03-05T00:13:57.307Z,155444.94
2023-03-05T00:16:27.625Z,155402.72
2023-03-05T00:18:56.450Z,155433.06
2023-03-05T00:21:27.719Z,155409.34
2023-03-05T00:23:57.134Z,155443.63
2023-03-05T00:26:27.361Z,155444.94
2023-03-05T00:28:56.207Z,155368.44
2023-03-05T00:31:26.973Z,155373.66
2023-03-05T00:33:55.996Z,155423.84
2023-03-05T00:36:25.253Z,155434.38
2023-03-05T00:38:53.584Z,155430.44
2023-03-05T00:41:21.878Z,155425.16
2023-03-05T00:43:49.695Z,155407.97
2023-03-05T00:46:18.380Z,155349.94
2023-03-05T00:48:47.392Z,155397.44
2023-03-05T00:51:15.996Z,155423.84
2023-03-05T00:53:43.883Z,155421.16
2023-03-05T00:56:11.886Z,155346.00
2023-03-05T00:58:39.847Z,155422.53
2023-03-05T01:01:08.671Z,155376.34
2023-03-05T01:03:36.737Z,155413.25
2023-03-05T01:06:08.185Z,155405.34
2023-03-05T01:08:36.175Z,155415.94
2023-03-05T01:11:08.498Z,155394.81
2023-03-05T01:13:36.426Z,155417.25
2023-03-05T01:16:05.163Z,155418.56
2023-03-05T01:18:33.174Z,155401.38
2023-03-05T01:21:00.892Z,155422.53
2023-03-05T01:23:28.287Z,155418.56
2023-03-05T01:25:57.902Z,155414.56
2023-03-05T01:28:26.327Z,155413.25
2023-03-05T01:30:54.370Z,155400.06
2023-03-05T01:33:21.705Z,155414.56
2023-03-05T01:35:50.392Z,155363.16
2023-03-05T01:38:19.370Z,155400.06
2023-03-05T01:40:47.452Z,155417.25
2023-03-05T01:43:28.281Z,155417.25
2023-03-05T01:46:16.916Z,155409.34
2023-03-05T01:49:16.314Z,155409.34
2023-03-05T01:52:18.145Z,155400.06
2023-03-05T01:55:01.942Z,155364.44
2023-03-05T01:57:34.226Z,155394.81
2023-03-05T02:00:07.198Z,155394.81
2023-03-05T02:02:42.701Z,155394.81
2023-03-05T02:05:13.750Z,155400.06
2023-03-05T02:07:43.264Z,155376.34
2023-03-05T02:10:22.520Z,155381.63
2023-03-05T02:12:50.849Z,155373.66
2023-03-05T02:15:18.608Z,155384.25
2023-03-05T02:17:46.385Z,155375.03
2023-03-05T02:20:17.825Z,155388.22
2023-03-05T02:22:45.891Z,155365.75
2023-03-05T02:25:27.755Z,155393.47
2023-03-05T02:28:00.585Z,155390.84
2023-03-05T02:30:29.013Z,155386.88
2023-03-05T02:32:57.404Z,155394.81
2023-03-05T02:35:25.480Z,155389.53
2023-03-05T02:37:53.232Z,155377.66
2023-03-05T02:40:20.606Z,155361.81
2023-03-05T02:42:49.337Z,155365.75
2023-03-05T02:45:17.582Z,155365.75
2023-03-05T02:47:45.166Z,155369.75
2023-03-05T02:50:12.690Z,155364.44
2023-03-05T02:52:40.762Z,155359.16
2023-03-05T02:55:13.413Z,155364.44
2023-03-05T02:57:42.227Z,155347.31
2023-03-05T03:00:10.696Z,155368.44
2023-03-05T03:02:39.292Z,155357.84
2023-03-05T03:05:07.629Z,155347.31
2023-03-05T03:07:36.710Z,155347.31
2023-03-05T03:10:05.426Z,155365.75
2023-03-05T03:12:37.739Z,155361.81
2023-03-05T03:15:05.908Z,155360.53
2023-03-05T03:17:35.590Z,155377.66
2023-03-05T03:20:04.886Z,155372.34
2023-03-05T03:22:32.914Z,155384.25
2023-03-05T03:25:01.384Z,155378.97
2023-03-05T03:27:29.024Z,155386.88
2023-03-05T03:29:56.367Z,155381.63
2023-03-05T03:32:24.176Z,155392.16
2023-03-05T03:34:51.721Z,155401.38
2023-03-05T03:37:19.551Z,155394.81
2023-03-05T03:39:46.970Z,155372.34
2023-03-05T03:42:18.018Z,155398.75
2023-03-05T03:44:45.444Z,155411.94
2023-03-05T03:47:13.203Z,155400.06
2023-03-05T03:49:40.495Z,155400.06
2023-03-05T03:52:08.516Z,155376.34
2023-03-05T03:54:36.094Z,155402.72
2023-03-05T03:57:04.050Z,155402.72
2023-03-05T03:59:31.416Z,155378.97
2023-03-05T04:01:59.089Z,155406.66
2023-03-05T04:04:26.882Z,155393.47
2023-03-05T04:06:54.647Z,155407.97
2023-03-05T04:09:22.124Z,155411.94
2023-03-05T04:11:49.937Z,155418.56
2023-03-05T04:14:17.324Z,155421.16
2023-03-05T04:16:44.989Z,155421.16
2023-03-05T04:19:12.309Z,155429.06
2023-03-05T04:21:40.345Z,155429.06
2023-03-05T04:24:08.455Z,155440.97
2023-03-05T04:26:36.278Z,155434.38
2023-03-05T04:29:03.562Z,155451.56
2023-03-05T04:31:31.339Z,155464.75
2023-03-05T04:33:59.886Z,155467.38
2023-03-05T04:36:27.769Z,155459.47
2023-03-05T04:38:55.119Z,155456.78
2023-03-05T04:41:22.992Z,155455.47
2023-03-05T04:43:50.376Z,155459.47
2023-03-05T04:46:18.250Z,155471.34
2023-03-05T04:48:45.570Z,155487.16
2023-03-05T04:51:13.224Z,155455.47
2023-03-05T04:53:40.662Z,155473.97
2023-03-05T04:56:08.644Z,155472.66
2023-03-05T04:58:36.011Z,155463.38
2023-03-05T05:01:05.310Z,155462.06
2023-03-05T05:03:33.244Z,155463.38
2023-03-05T05:06:01.791Z,155484.50
2023-03-05T05:08:29.559Z,155467.38
2023-03-05T05:11:05.514Z,155477.91
2023-03-05T05:13:33.568Z,155484.50
2023-03-05T05:16:01.350Z,155480.56
2023-03-05T05:18:28.737Z,155470.00
2023-03-05T05:20:56.522Z,155468.69
2023-03-05T05:23:24.302Z,155468.69
2023-03-05T05:26:00.016Z,155473.97
2023-03-05T05:28:27.904Z,155470.00
2023-03-05T05:30:55.855Z,155468.69
2023-03-05T05:33:23.978Z,155506.97
2023-03-05T05:35:51.863Z,155485.88
2023-03-05T05:38:19.337Z,155491.09
2023-03-05T05:40:46.969Z,155492.47
2023-03-05T05:43:14.498Z,155491.09
2023-03-05T05:45:42.377Z,155508.28
2023-03-05T05:48:09.931Z,155495.09
2023-03-05T05:50:39.574Z,155521.50
2023-03-05T05:53:06.848Z,155553.13
2023-03-05T05:55:34.428Z,155558.44
2023-03-05T05:58:01.945Z,155587.47
2023-03-05T06:00:29.618Z,155629.69
2023-03-05T06:02:57.180Z,155653.50
2023-03-05T06:05:25.043Z,155724.78
2023-03-05T06:07:52.379Z,155800.09
2023-03-05T06:10:20.385Z,155888.56
2023-03-05T06:12:47.999Z,155945.44
2023-03-05T06:15:15.647Z,156040.56
2023-03-05T06:17:43.128Z,156078.94
2023-03-05T06:20:11.775Z,156048.50
2023-03-05T06:22:39.523Z,156052.47
2023-03-05T06:25:08.626Z,156044.56
2023-03-05T06:27:36.281Z,156051.16
2023-03-05T06:30:05.564Z,156044.56
2023-03-05T06:32:33.046Z,156026.03
2023-03-05T06:35:00.778Z,156031.34
2023-03-05T06:37:28.132Z,156000.91
2023-03-05T06:39:55.716Z,156028.66
2023-03-05T06:42:23.028Z,156052.47
2023-03-05T06:44:50.590Z,156044.56
2023-03-05T06:47:17.957Z,156065.72
2023-03-05T06:49:45.442Z,156098.78
2023-03-05T06:52:13.097Z,156108.03
2023-03-05T06:54:40.819Z,156098.78
2023-03-05T06:57:10.446Z,156105.34
2023-03-05T06:59:38.326Z,156143.72
2023-03-05T07:02:05.908Z,156125.19
2023-03-05T07:04:33.701Z,156134.47
2023-03-05T07:07:01.360Z,156131.78
2023-03-05T07:09:29.255Z,156158.25
2023-03-05T07:11:56.917Z,156155.63
2023-03-05T07:14:24.447Z,156203.19
2023-03-05T07:16:51.796Z,156228.34
2023-03-05T07:19:19.613Z,156242.91
2023-03-05T07:21:47.618Z,156257.44
2023-03-05T07:24:15.294Z,156297.16
2023-03-05T07:26:42.954Z,156303.75
2023-03-05T07:29:10.878Z,156326.25
2023-03-05T07:31:38.346Z,156361.97
2023-03-05T07:34:06.680Z,156361.97
2023-03-05T07:36:35.256Z,156343.47
2023-03-05T07:39:05.105Z,156352.72
2023-03-05T07:41:33.492Z,156392.44
2023-03-05T07:44:01.702Z,156391.06
2023-03-05T07:46:32.201Z,156436.09
2023-03-05T07:49:00.708Z,156424.16
2023-03-05T07:51:28.853Z,156407.00
2023-03-05T07:53:59.063Z,156426.81
2023-03-05T07:56:37.303Z,156444.03
2023-03-05T07:59:07.259Z,156467.84
2023-03-05T08:01:35.694Z,156478.44
2023-03-05T08:04:04.596Z,156469.19
2023-03-05T08:06:31.970Z,156454.59
2023-03-05T08:09:00.595Z,156465.22
2023-03-05T08:11:28.842Z,156457.28
2023-03-05T08:13:59.824Z,156453.28
2023-03-05T08:16:28.289Z,156451.97
2023-03-05T08:18:57.635Z,156485.06
2023-03-05T08:21:29.607Z,156497.00
2023-03-05T08:23:57.947Z,156500.94
2023-03-05T08:26:27.343Z,156507.56
2023-03-05T08:28:55.631Z,156520.81
2023-03-05T08:31:24.772Z,156514.19
2023-03-05T08:33:55.294Z,156504.94
2023-03-05T08:36:23.258Z,156503.56
2023-03-05T08:38:51.561Z,156470.53
2023-03-05T08:41:19.811Z,156506.25
2023-03-05T08:43:48.598Z,156477.13
2023-03-05T08:46:17.212Z,156477.13
2023-03-05T08:48:45.760Z,156453.28
2023-03-05T08:51:15.380Z,156446.66
2023-03-05T08:53:45.312Z,156461.22
2023-03-05T08:56:13.762Z,156493.00
2023-03-05T08:58:41.434Z,156486.38
2023-03-05T09:01:08.728Z,156506.25
2023-03-05T09:03:36.896Z,156499.63
2023-03-05T09:06:07.762Z,156504.94
2023-03-05T09:08:36.408Z,156495.63
2023-03-05T09:11:05.501Z,156510.19
2023-03-05T09:13:33.756Z,156515.50
2023-03-05T09:16:04.136Z,156518.19
2023-03-05T09:18:32.451Z,156531.38
2023-03-05T09:21:05.139Z,156542.00
2023-03-05T09:23:33.153Z,156549.94
2023-03-05T09:26:00.521Z,156547.31
2023-03-05T09:28:28.425Z,156532.75
2023-03-05T09:30:55.615Z,156552.56
2023-03-05T09:33:23.668Z,156556.56
2023-03-05T09:35:51.596Z,156511.56
2023-03-05T09:38:19.638Z,156556.56
2023-03-05T09:41:10.371Z,156565.81
2023-03-05T09:44:03.949Z,156575.09
2023-03-05T09:47:04.096Z,156597.63
2023-03-05T09:49:57.553Z,156596.28
2023-03-05T09:52:50.638Z,156576.44
2023-03-05T09:55:21.514Z,156577.75
2023-03-05T09:57:59.496Z,156542.00
2023-03-05T10:00:32.948Z,156572.44
2023-03-05T10:03:05.642Z,156577.75
2023-03-05T10:05:44.120Z,156588.34
2023-03-05T10:08:12.464Z,156544.63
2023-03-05T10:10:52.677Z,156547.31
2023-03-05T10:13:29.433Z,156527.44
2023-03-05T10:16:06.841Z,156540.69
2023-03-05T10:18:55.914Z,156546.00
2023-03-05T10:21:45.463Z,156569.81
2023-03-05T10:24:15.621Z,156571.13
2023-03-05T10:26:59.984Z,156572.44
2023-03-05T10:29:39.857Z,156560.56
2023-03-05T10:32:35.876Z,156601.59
2023-03-05T10:35:34.784Z,156618.78
2023-03-05T10:38:16.250Z,156608.19
2023-03-05T10:40:48.391Z,156637.34
2023-03-05T10:43:51.748Z,156579.06
2023-03-05T10:46:21.794Z,156551.25
2023-03-05T10:48:53.873Z,156530.06
2023-03-05T10:51:42.172Z,156539.38
2023-03-05T10:54:19.519Z,156543.31
2023-03-05T10:56:46.736Z,156535.38
2023-03-05T10:59:14.328Z,156503.56
2023-03-05T11:01:41.988Z,156527.44
2023-03-05T11:04:30.281Z,156520.81
2023-03-05T11:06:58.051Z,156499.63
2023-03-05T11:09:29.484Z,156485.06
2023-03-05T11:12:19.769Z,156520.81
2023-03-05T11:15:07.924Z,156491.69
2023-03-05T11:17:49.194Z,156543.31
2023-03-05T11:20:36.006Z,156503.56
2023-03-05T11:23:24.891Z,156479.75
2023-03-05T11:26:15.598Z,156441.41
2023-03-05T11:28:52.131Z,156475.81
2023-03-05T11:31:21.973Z,156470.53
2023-03-05T11:34:12.158Z,156485.06
2023-03-05T11:37:03.821Z,156470.53
2023-03-05T11:39:34.447Z,156455.97
2023-03-05T11:42:06.913Z,156430.78
2023-03-05T11:44:50.872Z,156421.53
2023-03-05T11:47:36.175Z,156395.06
2023-03-05T11:50:23.805Z,156387.13
2023-03-05T11:53:09.776Z,156367.28
2023-03-05T11:56:00.670Z,156385.81
2023-03-05T11:58:49.587Z,156376.53
2023-03-05T12:01:20.879Z,156387.13
2023-03-05T12:03:50.519Z,156391.06
2023-03-05T12:06:27.190Z,156381.81
2023-03-05T12:08:58.717Z,156396.38
2023-03-05T12:11:31.231Z,156401.69
2023-03-05T12:14:24.825Z,156391.06
2023-03-05T12:16:54.672Z,156396.38
2023-03-05T12:20:00.234Z,156403.00
2023-03-05T12:22:35.202Z,156428.16
2023-03-05T12:25:29.412Z,156417.56
2023-03-05T12:27:57.457Z,156417.56
2023-03-05T12:30:48.865Z,156432.09
2023-03-05T12:33:35.782Z,156441.41
2023-03-05T12:36:22.799Z,156441.41
2023-03-05T12:38:57.114Z,156461.22
2023-03-05T12:41:27.431Z,156451.97
2023-03-05T12:44:07.417Z,156463.91
2023-03-05T12:46:42.739Z,156465.22
2023-03-05T12:49:27.334Z,156465.22
2023-03-05T12:52:00.165Z,156437.41
2023-03-05T12:54:35.716Z,156445.34
2023-03-05T12:57:07.176Z,156453.28
2023-03-05T12:59:42.345Z,156471.84
2023-03-05T13:02:36.718Z,156470.53
2023-03-05T13:05:28.288Z,156454.59
2023-03-05T13:08:21.832Z,156442.72
2023-03-05T13:10:58.111Z,156425.47
2023-03-05T13:13:27.588Z,156396.38
2023-03-05T13:15:55.182Z,156388.44
2023-03-05T13:18:31.143Z,156369.91
2023-03-05T13:21:04.861Z,156396.38
2023-03-05T13:23:34.218Z,156389.75
2023-03-05T13:26:15.619Z,156405.63
2023-03-05T13:28:45.208Z,156429.47
2023-03-05T13:31:21.422Z,156429.47
2023-03-05T13:33:54.847Z,156418.88
2023-03-05T13:36:22.932Z,156422.84
2023-03-05T13:38:51.125Z,156417.56
2023-03-05T13:41:20.377Z,156420.22
2023-03-05T13:43:58.285Z,156422.84
2023-03-05T13:46:32.265Z,156451.97
2023-03-05T13:49:23.113Z,156438.72
2023-03-05T13:51:53.968Z,156444.03
2023-03-05T13:54:23.375Z,156430.78
2023-03-05T13:56:56.970Z,156426.81
2023-03-05T13:59:30.955Z,156451.97
2023-03-05T14:02:00.185Z,156465.22
2023-03-05T14:04:39.117Z,156451.97
2023-03-05T14:07:08.793Z,156450.66
2023-03-05T14:09:39.452Z,156466.53
2023-03-05T14:12:21.637Z,156467.84
2023-03-05T14:14:49.311Z,156465.22
2023-03-05T14:17:42.537Z,156483.75
2023-03-05T14:20:13.245Z,156471.84
2023-03-05T14:22:43.376Z,156478.44
2023-03-05T14:25:42.430Z,156477.13
2023-03-05T14:28:28.344Z,156479.75
2023-03-05T14:30:57.058Z,156487.72
2023-03-05T14:33:32.596Z,156485.06
2023-03-05T14:36:01.163Z,156478.44
2023-03-05T14:38:30.895Z,156470.53
2023-03-05T14:40:58.677Z,156465.22
2023-03-05T14:43:26.009Z,156471.84
2023-03-05T14:45:53.861Z,156467.84
2023-03-05T14:48:21.195Z,156467.84
2023-03-05T14:50:57.102Z,156470.53
2023-03-05T14:53:27.299Z,156469.19
2023-03-05T14:55:57.067Z,156467.84
2023-03-05T14:58:32.588Z,156471.84
2023-03-05T15:01:00.431Z,156474.47
2023-03-05T15:03:28.195Z,156486.38
2023-03-05T15:05:57.519Z,156457.28
2023-03-05T15:08:30.638Z,156453.28
2023-03-05T15:10:59.769Z,156459.91
2023-03-05T15:13:27.306Z,156446.66
2023-03-05T15:15:55.490Z,156433.41
2023-03-05T15:18:23.919Z,156424.16
2023-03-05T15:20:55.514Z,156418.88
2023-03-05T15:23:23.384Z,156408.31
2023-03-05T15:25:51.302Z,156410.94
2023-03-05T15:28:18.901Z,156422.84
2023-03-05T15:30:47.465Z,156428.16
2023-03-05T15:33:16.790Z,156416.25
2023-03-05T15:35:45.144Z,156422.84
2023-03-05T15:38:12.492Z,156425.47
2023-03-05T15:40:40.854Z,156425.47
2023-03-05T15:43:10.388Z,156416.25
2023-03-05T15:45:39.380Z,156385.81
2023-03-05T15:48:11.174Z,156388.44
2023-03-05T15:50:43.660Z,156369.91
2023-03-05T15:53:16.406Z,156375.22
2023-03-05T15:55:46.438Z,156379.19
2023-03-05T15:58:16.172Z,156376.53
2023-03-05T16:00:44.620Z,156380.50
2023-03-05T16:03:12.497Z,156392.44
2023-03-05T16:05:40.352Z,156369.91
2023-03-05T16:08:08.750Z,156364.66
2023-03-05T16:10:40.159Z,156367.28
2023-03-05T16:13:13.806Z,156363.28
2023-03-05T16:15:42.136Z,156348.72
2023-03-05T16:18:24.863Z,156356.66
2023-03-05T16:20:57.079Z,156359.34
2023-03-05T16:23:24.991Z,156354.03
2023-03-05T16:25:52.799Z,156348.72
2023-03-05T16:28:20.212Z,156343.47
2023-03-05T16:30:55.875Z,156336.84
2023-03-05T16:33:23.878Z,156344.78
2023-03-05T16:36:11.588Z,156335.50
2023-03-05T16:38:39.012Z,156303.75
2023-03-05T16:41:08.867Z,156313.00
2023-03-05T16:43:37.736Z,156314.31
2023-03-05T16:46:06.298Z,156310.38
2023-03-05T16:48:34.360Z,156290.53
2023-03-05T16:51:02.880Z,156275.97
2023-03-05T16:53:30.687Z,156275.97
2023-03-05T16:55:59.100Z,156274.66
2023-03-05T16:58:26.437Z,156264.06
2023-03-05T17:00:54.120Z,156234.97
2023-03-05T17:03:22.214Z,156253.50
2023-03-05T17:05:49.935Z,156228.34
2023-03-05T17:08:17.390Z,156228.34
2023-03-05T17:10:45.769Z,156225.72
2023-03-05T17:13:13.222Z,156205.88
2023-03-05T17:18:10.256Z,156184.72
2023-03-05T17:20:38.106Z,156162.25
2023-03-05T17:23:05.561Z,156122.56
2023-03-05T17:25:33.274Z,156097.41
2023-03-05T17:28:00.713Z,156081.56
2023-03-05T17:30:28.561Z,156063.03
2023-03-05T17:32:56.002Z,156033.97
2023-03-05T17:35:24.120Z,156037.94
2023-03-05T17:37:53.743Z,156012.81
2023-03-05T17:40:22.872Z,156000.91
2023-03-05T17:42:50.454Z,155989.03
2023-03-05T17:45:18.208Z,155973.19
2023-03-05T17:47:45.488Z,155966.56
2023-03-05T17:50:14.431Z,155969.19
2023-03-05T17:52:41.987Z,155957.28
2023-03-05T17:55:11.164Z,155961.28
2023-03-05T17:57:41.663Z,155949.38
2023-03-05T18:00:24.945Z,155926.91
2023-03-05T18:02:52.507Z,155934.84
2023-03-05T18:05:22.407Z,155945.44
2023-03-05T18:07:50.475Z,155916.31
2023-03-05T18:10:19.466Z,155908.41
2023-03-05T18:12:47.098Z,155905.78
2023-03-05T18:15:16.268Z,155903.09
2023-03-05T18:17:44.258Z,155883.31
2023-03-05T18:20:26.399Z,155862.19
2023-03-05T18:22:54.330Z,155874.03
2023-03-05T18:25:23.535Z,155848.97
2023-03-05T18:27:50.906Z,155860.81
2023-03-05T18:30:18.907Z,155870.09
2023-03-05T18:32:47.793Z,155870.09
2023-03-05T18:35:15.513Z,155858.19
2023-03-05T18:37:42.915Z,155855.56
2023-03-05T18:40:16.880Z,155844.97
2023-03-05T18:42:46.288Z,155833.06
2023-03-05T18:45:15.557Z,155851.59
2023-03-05T18:47:43.348Z,155826.47
2023-03-05T18:50:15.128Z,155826.47
2023-03-05T18:52:43.075Z,155819.91
2023-03-05T18:55:27.126Z,155810.63
2023-03-05T18:57:55.262Z,155815.94
2023-03-05T19:00:32.373Z,155801.41
2023-03-05T19:03:00.302Z,155794.78
2023-03-05T19:05:28.364Z,155797.41
2023-03-05T19:07:56.604Z,155788.19
2023-03-05T19:10:24.776Z,155771.03
2023-03-05T19:13:08.163Z,155769.69
2023-03-05T19:15:39.793Z,155753.84
2023-03-05T19:18:07.232Z,155744.59
2023-03-05T19:20:35.505Z,155755.16
2023-03-05T19:23:05.763Z,155730.09
2023-03-05T19:25:36.469Z,155743.31
2023-03-05T19:28:04.348Z,155765.75
2023-03-05T19:30:32.504Z,155748.53
2023-03-05T19:33:04.012Z,155743.31
2023-03-05T19:35:32.708Z,155764.44
2023-03-05T19:38:03.440Z,155736.69
2023-03-05T19:40:31.917Z,155748.53
2023-03-05T19:43:02.583Z,155722.16
2023-03-05T19:45:34.065Z,155722.16
2023-03-05T19:48:01.667Z,155695.75
2023-03-05T19:50:29.590Z,155706.28
2023-03-05T19:52:57.573Z,155695.75
2023-03-05T19:55:28.983Z,155698.38
2023-03-05T19:57:57.361Z,155671.94
2023-03-05T20:00:27.850Z,155669.31
2023-03-05T20:02:55.273Z,155640.28
2023-03-05T20:05:26.142Z,155656.13
2023-03-05T20:07:54.149Z,155654.81
2023-03-05T20:10:22.832Z,155650.81
2023-03-05T20:12:51.442Z,155637.63
2023-03-05T20:15:21.475Z,155652.13
2023-03-05T20:17:49.285Z,155620.47
2023-03-05T20:20:21.491Z,155633.69
2023-03-05T20:22:49.506Z,155627.09
2023-03-05T20:25:21.550Z,155633.69
2023-03-05T20:27:52.126Z,155653.50
2023-03-05T20:30:25.449Z,155650.81
2023-03-05T20:32:55.341Z,155608.56
2023-03-05T20:35:26.120Z,155653.50
2023-03-05T20:38:17.940Z,155664.03
2023-03-05T20:40:45.534Z,155671.94
2023-03-05T20:43:13.042Z,155665.34
2023-03-05T20:45:41.800Z,155669.31
2023-03-05T20:48:12.600Z,155645.59
2023-03-05T20:50:41.373Z,155637.63
2023-03-05T20:53:10.768Z,155641.59
2023-03-05T20:55:38.678Z,155653.50
2023-03-05T20:58:06.335Z,155653.50
2023-03-05T21:00:35.052Z,155661.41
2023-03-05T21:03:06.471Z,155661.41
2023-03-05T21:05:42.300Z,155653.50
2023-03-05T21:08:10.530Z,155636.31
2023-03-05T21:10:39.140Z,155641.59
2023-03-05T21:13:06.597Z,155661.41
2023-03-05T21:15:35.070Z,155640.28
2023-03-05T21:18:09.042Z,155640.28
2023-03-05T21:20:36.869Z,155627.09
2023-03-05T21:23:04.247Z,155619.16
2023-03-05T21:25:33.483Z,155620.47
2023-03-05T21:28:07.287Z,155609.91
2023-03-05T21:30:42.750Z,155633.69
2023-03-05T21:33:13.946Z,155629.69
2023-03-05T21:35:42.564Z,155629.69
2023-03-05T21:38:10.272Z,155625.78
2023-03-05T21:40:43.660Z,155609.91
2023-03-05T21:43:12.431Z,155605.97
2023-03-05T21:45:41.062Z,155592.75
2023-03-05T21:48:09.454Z,155605.97
2023-03-05T21:50:39.837Z,155587.47
2023-03-05T21:53:08.087Z,155537.31
2023-03-05T21:55:46.758Z,155566.34
2023-03-05T21:58:14.932Z,155566.34
2023-03-05T22:00:42.983Z,155547.91
2023-03-05T22:03:10.476Z,155542.59
2023-03-05T22:05:38.228Z,155528.09
2023-03-05T22:08:05.667Z,155516.19
2023-03-05T22:10:33.671Z,155532.03
2023-03-05T22:13:02.396Z,155521.50
2023-03-05T22:15:31.983Z,155443.63
2023-03-05T22:18:00.161Z,155513.56
2023-03-05T22:20:27.915Z,155512.22
2023-03-05T22:22:55.460Z,155506.97
2023-03-05T22:25:24.001Z,155509.59
2023-03-05T22:27:51.525Z,155505.63
2023-03-05T22:30:20.413Z,155488.47
2023-03-05T22:32:47.667Z,155505.63
2023-03-05T22:35:16.329Z,155493.78
2023-03-05T22:37:44.257Z,155483.19
2023-03-05T22:40:17.062Z,155481.88
2023-03-05T22:42:44.852Z,155479.25
2023-03-05T22:45:13.940Z,155468.69
2023-03-05T22:47:41.280Z,155421.16
2023-03-05T22:50:10.082Z,155434.38
2023-03-05T22:52:37.514Z,155433.06
2023-03-05T22:55:05.723Z,155418.56
2023-03-05T22:57:33.277Z,155407.97
2023-03-05T23:00:00.872Z,155397.44
2023-03-05T23:02:28.306Z,155394.81
2023-03-05T23:05:00.697Z,155402.72
2023-03-05T23:07:30.530Z,155392.16
2023-03-05T23:10:04.750Z,155390.84
2023-03-05T23:12:33.911Z,155390.84
2023-03-05T23:15:13.788Z,155378.97
2023-03-05T23:17:41.295Z,155376.34
2023-03-05T23:20:11.800Z,155376.34
2023-03-05T23:22:40.505Z,155357.84
2023-03-05T23:25:08.646Z,155343.34
2023-03-05T23:27:35.972Z,155364.44
2023-03-05T23:30:23.120Z,155349.94
2023-03-05T23:32:52.784Z,155342.03
2023-03-05T23:35:23.715Z,155331.47
2023-03-05T23:37:52.202Z,155334.13
2023-03-05T23:40:25.275Z,155316.97
2023-03-05T23:42:53.228Z,155323.56
2023-03-05T23:45:22.744Z,155344.66
2023-03-05T23:47:51.336Z,155320.94
2023-03-05T23:50:21.758Z,155318.31
2023-03-05T23:52:50.265Z,155315.66
2023-03-05T23:55:24.436Z,155299.84
2023-03-05T23:57:52.185Z,155294.53
